Time;durP1;ratioP1;P1;durP2;ratioP2;P2;SDS_P1;SDS_P2;PMS_P1;PMS_P2;Temp;Humidity;BMP_temperature;BMP_pressure;BME280_temperature;BME280_humidity;BME280_pressure;Samples;Min_cycle;Max_cycle;Signal;HPM_P1;HPM_P2
2020/12/07 00:01:19;;;;;;;14.57;7.10;;;0.70;99.90;;;;;;4993596;28;20185;-89
2020/12/07 00:03:45;;;;;;;11.33;5.97;;;0.70;99.90;;;;;;4976133;28;20598;-92
2020/12/07 00:06:16;;;;;;;12.27;6.27;;;0.70;99.90;;;;;;4993063;28;20245;-91
2020/12/07 00:08:42;;;;;;;9.30;6.07;;;0.70;99.90;;;;;;4993870;28;20241;-93
2020/12/07 00:11:10;;;;;;;8.73;5.03;;;0.70;99.90;;;;;;4992074;28;20197;-91
2020/12/07 00:13:36;;;;;;;9.60;5.13;;;0.70;99.90;;;;;;4992785;28;20192;-92
2020/12/07 00:16:01;;;;;;;11.03;5.40;;;0.70;99.90;;;;;;4992420;28;20186;-92
2020/12/07 00:18:28;;;;;;;11.43;6.17;;;0.60;99.90;;;;;;4993860;28;20546;-93
2020/12/07 00:20:54;;;;;;;13.73;6.87;;;0.70;99.90;;;;;;4976707;28;20272;-92
2020/12/07 00:23:19;;;;;;;12.67;6.63;;;0.70;99.90;;;;;;4993853;28;20294;-93
2020/12/07 00:25:45;;;;;;;8.67;5.57;;;0.70;99.90;;;;;;4976026;28;20748;-95
2020/12/07 00:28:11;;;;;;;10.03;5.53;;;0.70;99.90;;;;;;4992225;28;20186;-93
2020/12/07 00:30:37;;;;;;;7.70;4.83;;;0.60;99.90;;;;;;4992722;28;20538;-92
2020/12/07 00:33:03;;;;;;;9.63;4.97;;;0.60;99.90;;;;;;4975954;28;20282;-91
2020/12/07 00:35:28;;;;;;;11.43;5.30;;;0.60;99.90;;;;;;4992617;28;20224;-91
2020/12/07 00:37:54;;;;;;;9.20;5.17;;;0.60;99.90;;;;;;4993638;28;20185;-93
2020/12/07 00:40:20;;;;;;;7.70;4.93;;;0.60;99.90;;;;;;4992109;28;20232;-92
2020/12/07 00:42:45;;;;;;;12.00;6.13;;;0.60;99.90;;;;;;4993417;28;20627;-92
2020/12/07 00:45:11;;;;;;;16.30;5.80;;;0.60;99.90;;;;;;4993019;28;20651;-92
2020/12/07 00:47:37;;;;;;;7.13;4.47;;;0.60;99.90;;;;;;4993618;28;20248;-92
2020/12/07 00:50:04;;;;;;;5.90;4.10;;;0.60;99.90;;;;;;4993052;28;20260;-91
2020/12/07 00:52:29;;;;;;;7.33;4.37;;;0.60;99.90;;;;;;4993251;28;20204;-91
2020/12/07 00:54:55;;;;;;;8.37;4.70;;;0.60;99.90;;;;;;4992498;28;20644;-92
2020/12/07 00:57:21;;;;;;;9.90;5.60;;;0.60;99.90;;;;;;4993120;28;20185;-92
2020/12/07 00:59:46;;;;;;;6.70;4.53;;;0.50;99.90;;;;;;4993469;28;20668;-93
2020/12/07 01:02:12;;;;;;;10.20;5.60;;;0.50;99.90;;;;;;4991754;28;20659;-92
2020/12/07 01:04:38;;;;;;;7.90;5.57;;;0.50;99.90;;;;;;4993758;28;20189;-92
2020/12/07 01:07:03;;;;;;;7.47;5.20;;;0.50;99.90;;;;;;4991573;28;20252;-92
2020/12/07 01:09:29;;;;;;;8.67;5.80;;;0.50;99.90;;;;;;4977529;28;20622;-90
2020/12/07 01:11:58;;;;;;;9.53;5.40;;;0.60;99.90;;;;;;4996712;28;20188;-91
2020/12/07 01:14:24;;;;;;;7.00;5.20;;;0.60;99.90;;;;;;4994601;28;20204;-92
2020/12/07 01:16:50;;;;;;;7.40;5.30;;;0.60;99.90;;;;;;4995342;28;20185;-91
2020/12/07 01:19:17;;;;;;;6.77;4.90;;;0.60;99.90;;;;;;5010343;28;20278;-91
2020/12/07 01:21:43;;;;;;;7.13;4.67;;;0.60;99.90;;;;;;4994843;28;20242;-92
2020/12/07 01:24:08;;;;;;;11.30;5.33;;;0.60;99.90;;;;;;4996182;28;20663;-92
2020/12/07 01:26:34;;;;;;;7.83;4.93;;;0.60;99.90;;;;;;5011459;28;20685;-92
2020/12/07 01:29:01;;;;;;;8.33;5.33;;;0.60;99.90;;;;;;4995323;28;20332;-91
2020/12/07 01:31:27;;;;;;;9.77;5.57;;;1.20;99.90;;;;;;5011324;28;20201;-91
2020/12/07 01:33:53;;;;;;;7.57;4.87;;;0.60;99.90;;;;;;5011368;28;20552;-90
2020/12/07 01:36:19;;;;;;;8.77;4.63;;;0.60;99.90;;;;;;4995809;28;20542;-90
2020/12/07 01:38:45;;;;;;;7.10;4.87;;;0.60;99.90;;;;;;4994628;28;20189;-91
2020/12/07 01:41:10;;;;;;;8.30;4.60;;;0.60;99.90;;;;;;5010668;28;20189;-89
2020/12/07 01:43:36;;;;;;;7.53;5.07;;;0.70;99.90;;;;;;4995086;28;20181;-90
2020/12/07 01:46:04;;;;;;;5.83;4.23;;;0.70;99.90;;;;;;4994897;28;20225;-88
2020/12/07 01:48:30;;;;;;;12.20;5.03;;;0.70;99.90;;;;;;5011018;28;20194;-91
2020/12/07 01:50:56;;;;;;;7.27;4.80;;;0.70;99.90;;;;;;4978401;28;20181;-90
2020/12/07 01:53:22;;;;;;;8.33;4.87;;;0.70;99.90;;;;;;4995472;28;20239;-90
2020/12/07 01:55:52;;;;;;;9.03;5.30;;;0.70;99.90;;;;;;4994674;28;20193;-90
2020/12/07 01:58:18;;;;;;;9.70;5.40;;;0.70;99.90;;;;;;4994188;28;20286;-92
2020/12/07 02:00:44;;;;;;;7.40;4.93;;;0.70;99.90;;;;;;5010963;28;20269;-91
2020/12/07 02:03:10;;;;;;;7.50;4.70;;;0.70;99.90;;;;;;5010474;28;20185;-91
2020/12/07 02:05:38;;;;;;;8.57;4.70;;;0.70;99.90;;;;;;5010257;28;20715;-91
2020/12/07 02:08:15;;;;;;;9.10;5.60;;;0.80;99.90;;;;;;4994235;28;20289;-90
2020/12/07 02:10:42;;;;;;;7.23;4.90;;;0.70;99.90;;;;;;5010757;28;20210;-91
2020/12/07 02:13:08;;;;;;;7.80;4.50;;;0.70;99.90;;;;;;4995095;28;20174;-90
2020/12/07 02:15:34;;;;;;;9.83;4.93;;;0.70;99.90;;;;;;4995457;28;20623;-90
2020/12/07 02:18:00;;;;;;;8.63;5.00;;;0.70;99.90;;;;;;5010487;28;20185;-91
2020/12/07 02:20:26;;;;;;;9.93;4.93;;;0.70;99.90;;;;;;4994952;28;20181;-90
2020/12/07 02:22:52;;;;;;;8.90;5.00;;;0.80;99.90;;;;;;4994041;28;20189;-90
2020/12/07 02:25:21;;;;;;;7.40;4.70;;;0.80;99.90;;;;;;4995057;28;20212;-91
2020/12/07 02:27:48;;;;;;;8.80;5.30;;;0.80;99.90;;;;;;4995150;28;20181;-90
2020/12/07 02:30:18;;;;;;;7.73;4.63;;;0.80;99.90;;;;;;4994880;28;20178;-90
2020/12/07 02:32:45;;;;;;;11.13;5.30;;;0.80;99.90;;;;;;4995165;28;20182;-90
2020/12/07 02:35:12;;;;;;;8.23;4.97;;;0.80;99.90;;;;;;5009977;28;20193;-91
2020/12/07 02:37:38;;;;;;;9.40;5.03;;;0.90;99.90;;;;;;4995003;28;20174;-91
2020/12/07 02:40:05;;;;;;;9.00;6.30;;;0.90;99.90;;;;;;4995181;28;20249;-91
2020/12/07 02:42:35;;;;;;;8.33;5.07;;;0.90;99.90;;;;;;4993840;28;20178;-92
2020/12/07 02:45:02;;;;;;;9.00;5.20;;;0.80;99.90;;;;;;4994953;28;20233;-92
2020/12/07 02:47:28;;;;;;;8.10;4.97;;;0.90;99.90;;;;;;4994549;28;20217;-92
2020/12/07 02:49:55;;;;;;;6.87;4.93;;;0.80;99.90;;;;;;5009761;28;20216;-91
2020/12/07 02:52:23;;;;;;;10.43;5.43;;;0.80;99.90;;;;;;4974083;28;20218;-90
2020/12/07 02:54:54;;;;;;;7.83;5.53;;;0.90;99.90;;;;;;4975230;28;20206;-90
2020/12/07 02:57:21;;;;;;;14.00;5.00;;;0.80;99.90;;;;;;4957630;28;20186;-91
2020/12/07 02:59:47;;;;;;;10.30;5.53;;;0.80;99.90;;;;;;4975152;28;20178;-91
2020/12/07 03:02:13;;;;;;;13.13;6.13;;;0.80;99.90;;;;;;4974872;28;20178;-90
2020/12/07 03:04:38;;;;;;;9.17;5.17;;;0.80;99.90;;;;;;4975138;28;20604;-90
2020/12/07 03:07:04;;;;;;;8.60;5.37;;;0.80;99.90;;;;;;4973741;28;20242;-90
2020/12/07 03:09:30;;;;;;;11.13;5.50;;;0.80;99.90;;;;;;4973156;28;20542;-90
2020/12/07 03:11:56;;;;;;;9.40;6.57;;;0.80;99.90;;;;;;4973900;28;20265;-90
2020/12/07 03:14:21;;;;;;;12.33;6.60;;;0.70;99.90;;;;;;4974461;28;20206;-90
2020/12/07 03:16:47;;;;;;;8.70;5.57;;;0.70;99.90;;;;;;4974949;28;20193;-90
2020/12/07 03:19:13;;;;;;;12.40;6.63;;;0.70;99.90;;;;;;4974624;28;20189;-91
2020/12/07 03:21:38;;;;;;;14.67;6.07;;;0.70;99.90;;;;;;4957578;28;20281;-92
2020/12/07 03:24:07;;;;;;;11.17;6.27;;;0.70;99.90;;;;;;4973938;28;20651;-93
2020/12/07 03:26:34;;;;;;;11.13;6.57;;;0.70;99.90;;;;;;4974310;28;20213;-92
2020/12/07 03:29:02;;;;;;;10.73;6.50;;;0.70;99.90;;;;;;4974747;28;20179;-91
2020/12/07 03:31:29;;;;;;;10.70;6.13;;;0.70;99.90;;;;;;4972696;28;21089;-93
2020/12/07 03:33:55;;;;;;;9.90;6.30;;;0.70;99.90;;;;;;4973611;28;20213;-92
2020/12/07 03:36:21;;;;;;;9.87;5.33;;;0.80;99.90;;;;;;4973568;28;20200;-92
2020/12/07 03:38:46;;;;;;;12.30;6.90;;;0.70;99.90;;;;;;4989587;28;20191;-92
2020/12/07 03:41:12;;;;;;;12.20;6.80;;;0.70;99.90;;;;;;4974688;28;20543;-93
2020/12/07 03:43:38;;;;;;;11.10;6.70;;;0.70;99.90;;;;;;4974935;28;20209;-92
2020/12/07 03:46:03;;;;;;;8.73;5.80;;;0.70;99.90;;;;;;4973363;28;20226;-93
2020/12/07 03:48:29;;;;;;;8.97;5.67;;;0.70;99.90;;;;;;4973085;28;20202;-93
2020/12/07 03:50:55;;;;;;;10.03;5.97;;;0.70;99.90;;;;;;4974394;28;20593;-90
2020/12/07 03:53:20;;;;;;;10.00;5.60;;;0.70;99.90;;;;;;4973079;28;20196;-92
2020/12/07 03:55:46;;;;;;;8.97;6.20;;;0.70;99.90;;;;;;4974749;28;20280;-90
2020/12/07 03:58:12;;;;;;;11.53;6.93;;;0.60;99.90;;;;;;4972944;28;20194;-89
2020/12/07 04:00:37;;;;;;;10.33;5.90;;;0.70;99.90;;;;;;4973288;28;20190;-90
2020/12/07 04:03:06;;;;;;;11.37;7.07;;;0.70;99.90;;;;;;4973175;28;20220;-90
2020/12/07 04:05:37;;;;;;;11.53;7.03;;;0.70;99.90;;;;;;4972633;28;20250;-90
2020/12/07 04:08:03;;;;;;;13.40;6.80;;;0.70;99.90;;;;;;4973187;28;20241;-91
2020/12/07 04:10:29;;;;;;;11.03;6.53;;;0.60;99.90;;;;;;4974252;28;20186;-90
2020/12/07 04:12:55;;;;;;;10.80;5.90;;;0.70;99.90;;;;;;4956912;28;20180;-90
2020/12/07 04:15:21;;;;;;;11.17;6.23;;;0.70;99.90;;;;;;4973980;28;20182;-91
2020/12/07 04:17:46;;;;;;;12.40;6.17;;;0.70;99.90;;;;;;4974356;28;20175;-90
2020/12/07 04:20:12;;;;;;;11.70;6.87;;;0.70;99.90;;;;;;4972633;28;20555;-90
2020/12/07 04:22:38;;;;;;;10.80;6.27;;;0.70;99.90;;;;;;4974461;28;20197;-90
2020/12/07 04:25:03;;;;;;;14.23;6.27;;;0.70;99.90;;;;;;4972990;28;20193;-91
2020/12/07 04:27:29;;;;;;;14.57;7.03;;;0.70;99.90;;;;;;4972655;28;20193;-94
2020/12/07 04:29:55;;;;;;;11.30;6.70;;;0.60;99.90;;;;;;4972861;28;20264;-86
2020/12/07 04:32:20;;;;;;;11.43;6.83;;;0.60;99.90;;;;;;4956475;28;20222;-91
2020/12/07 04:34:46;;;;;;;11.27;7.07;;;0.70;99.90;;;;;;4972704;28;20192;-89
2020/12/07 04:37:12;;;;;;;12.13;6.53;;;0.60;99.90;;;;;;4956617;28;20194;-89
2020/12/07 04:39:38;;;;;;;11.67;6.53;;;0.70;99.90;;;;;;4972577;28;20266;-90
2020/12/07 04:42:04;;;;;;;12.00;6.53;;;0.70;99.90;;;;;;4972759;28;20193;-91
2020/12/07 04:44:30;;;;;;;14.17;8.20;;;0.70;99.90;;;;;;4974139;28;20274;-89
2020/12/07 04:46:58;;;;;;;12.40;6.93;;;0.70;99.90;;;;;;4976409;28;20210;-92
2020/12/07 04:49:30;;;;;;;12.77;6.47;;;0.60;99.90;;;;;;4977482;28;20186;-90
2020/12/07 04:51:57;;;;;;;13.90;6.97;;;0.50;99.90;;;;;;4994606;28;20197;-90
2020/12/07 04:54:25;;;;;;;12.40;6.80;;;0.50;99.90;;;;;;4991470;28;20641;-89
2020/12/07 04:56:56;;;;;;;12.27;6.80;;;0.60;99.90;;;;;;4996802;28;20186;-88
2020/12/07 04:59:22;;;;;;;15.03;6.90;;;0.60;99.90;;;;;;4992910;28;20179;-91
2020/12/07 05:01:49;;;;;;;9.63;6.70;;;0.60;99.90;;;;;;4995339;28;20232;-91
2020/12/07 05:04:14;;;;;;;13.70;6.70;;;0.60;99.90;;;;;;4990237;28;20269;-88
2020/12/07 05:06:41;;;;;;;10.30;6.10;;;0.50;99.90;;;;;;4997466;28;20783;-89
2020/12/07 05:09:06;;;;;;;11.60;6.33;;;0.50;99.90;;;;;;5001645;28;20182;-88
2020/12/07 05:11:32;;;;;;;10.57;6.37;;;0.50;99.90;;;;;;4998298;28;20189;-89
2020/12/07 05:14:11;;;;;;;11.23;6.87;;;0.50;99.90;;;;;;4996393;28;20213;-83
2020/12/07 05:16:37;;;;;;;16.27;7.57;;;0.90;99.90;;;;;;4976967;28;20721;-84
2020/12/07 05:19:08;;;;;;;15.40;7.27;;;2.00;99.90;;;;;;4995261;28;20268;-84
2020/12/07 05:21:34;;;;;;;12.60;7.57;;;3.00;99.90;;;;;;4998989;28;20182;-91
2020/12/07 05:24:00;;;;;;;13.67;6.33;;;3.40;99.90;;;;;;4958543;28;20297;-89
2020/12/07 05:26:26;;;;;;;11.07;6.77;;;2.10;99.90;;;;;;4975782;28;20751;-88
2020/12/07 05:28:56;;;;;;;11.93;5.83;;;1.40;99.90;;;;;;5000803;28;20178;-88
2020/12/07 05:31:22;;;;;;;12.23;6.17;;;1.10;99.90;;;;;;4992262;28;20673;-87
2020/12/07 05:33:49;;;;;;;12.57;6.67;;;0.90;99.90;;;;;;4976365;28;20193;-89
2020/12/07 05:36:16;;;;;;;10.63;6.40;;;0.70;99.90;;;;;;4993482;28;20192;-88
2020/12/07 05:38:45;;;;;;;10.73;6.23;;;0.50;99.90;;;;;;4993116;28;20637;-90
2020/12/07 05:41:11;;;;;;;11.27;6.83;;;0.50;99.90;;;;;;4978264;28;20210;-92
2020/12/07 05:43:38;;;;;;;10.33;6.60;;;0.50;99.90;;;;;;5001176;28;20194;-90
2020/12/07 05:46:05;;;;;;;12.13;7.27;;;0.50;99.90;;;;;;4998234;28;20217;-93
2020/12/07 05:48:35;;;;;;;12.07;7.30;;;0.40;99.90;;;;;;4992904;28;20265;-91
2020/12/07 05:51:06;;;;;;;12.20;7.33;;;0.40;99.90;;;;;;4992388;28;20180;-91
2020/12/07 05:53:40;;;;;;;12.83;5.83;;;0.40;99.90;;;;;;4993392;28;20264;-89
2020/12/07 05:56:07;;;;;;;13.17;5.90;;;0.40;99.90;;;;;;4992157;28;20635;-89
2020/12/07 05:58:55;;;;;;;13.97;7.90;;;0.30;99.90;;;;;;4985573;28;20248;-91
2020/12/07 06:01:24;;;;;;;18.43;8.17;;;0.40;99.90;;;;;;4991611;28;20181;-91
2020/12/07 06:03:52;;;;;;;17.07;7.83;;;0.30;99.90;;;;;;4994722;28;20236;-91
2020/12/07 06:06:35;;;;;;;11.90;6.00;;;0.20;99.90;;;;;;4994708;28;20233;-91
2020/12/07 06:09:08;;;;;;;12.07;6.73;;;0.20;99.90;;;;;;4983670;28;20288;-90
2020/12/07 06:11:46;;;;;;;11.70;6.33;;;0.20;99.90;;;;;;4994385;28;20552;-91
2020/12/07 06:14:13;;;;;;;12.73;6.83;;;0.10;99.90;;;;;;4992996;28;20746;-92
2020/12/07 06:16:42;;;;;;;10.00;6.23;;;0.10;99.90;;;;;;4993191;28;20659;-92
2020/12/07 06:19:16;;;;;;;13.53;7.10;;;0.20;99.90;;;;;;4992634;28;20181;-91
2020/12/07 06:21:55;;;;;;;14.87;6.40;;;0.20;99.90;;;;;;4991600;28;20193;-91
2020/12/07 06:24:22;;;;;;;15.73;8.10;;;0.10;99.90;;;;;;4990045;28;20232;-91
2020/12/07 06:27:08;;;;;;;14.07;7.23;;;0.10;99.90;;;;;;4993160;28;20202;-92
2020/12/07 06:29:34;;;;;;;12.00;7.07;;;0.10;99.90;;;;;;4993739;28;20632;-92
2020/12/07 06:32:00;;;;;;;16.47;7.83;;;0.10;99.90;;;;;;4992255;28;20190;-91
2020/12/07 06:34:32;;;;;;;13.97;7.73;;;0.10;99.90;;;;;;4993636;28;20182;-90
2020/12/07 06:36:58;;;;;;;15.77;7.33;;;0.10;99.90;;;;;;4994632;28;20189;-94
2020/12/07 06:39:24;;;;;;;14.63;6.60;;;0.10;99.90;;;;;;4995838;28;20183;-92
2020/12/07 06:41:50;;;;;;;13.87;7.30;;;0.00;99.90;;;;;;4994891;28;20182;-91
2020/12/07 06:44:23;;;;;;;13.00;6.80;;;0.10;99.90;;;;;;4979028;28;20205;-92
2020/12/07 06:46:58;;;;;;;12.33;6.97;;;0.10;99.90;;;;;;4994479;28;20682;-94
2020/12/07 06:52:22;;;;;;;14.10;6.83;;;0.10;99.90;;;;;;4996021;28;20225;-90
2020/12/07 06:55:07;;;;;;;13.73;6.47;;;0.10;99.90;;;;;;4992673;28;20184;-90
2020/12/07 06:57:52;;;;;;;13.30;6.73;;;0.10;99.90;;;;;;4992926;28;20173;-91
2020/12/07 07:00:20;;;;;;;13.30;6.93;;;0.30;99.90;;;;;;4973598;28;20201;-88
2020/12/07 07:02:48;;;;;;;14.47;7.80;;;0.10;99.90;;;;;;4972873;28;20280;-87
2020/12/07 07:05:19;;;;;;;17.10;8.83;;;0.10;99.90;;;;;;4973868;28;20244;-92
2020/12/07 07:07:45;;;;;;;13.53;7.40;;;0.10;99.90;;;;;;4975142;28;20179;-95
2020/12/07 07:10:13;;;;;;;15.77;7.57;;;0.10;99.90;;;;;;4993380;28;20674;-93
2020/12/07 07:12:41;;;;;;;18.03;7.23;;;0.10;99.90;;;;;;4989820;28;20196;-93
2020/12/07 07:15:08;;;;;;;15.47;7.57;;;0.10;99.90;;;;;;4997707;28;20559;-94
2020/12/07 07:17:40;;;;;;;13.87;7.10;;;0.20;99.90;;;;;;5010164;28;20197;-94
2020/12/07 07:20:10;;;;;;;15.93;7.70;;;0.10;99.90;;;;;;4993320;28;20163;-94
2020/12/07 07:22:40;;;;;;;10.53;6.27;;;0.20;99.90;;;;;;4991973;28;20191;-93
2020/12/07 07:30:29;;;;;;;13.50;6.77;;;0.20;99.90;;;;;;4995640;28;20183;-92
2020/12/07 07:32:56;;;;;;;14.70;6.60;;;0.20;99.90;;;;;;4993281;28;20685;-91
2020/12/07 07:35:28;;;;;;;14.67;7.67;;;0.20;99.90;;;;;;4991639;28;20200;-90
2020/12/07 07:37:55;;;;;;;14.93;7.63;;;0.20;99.90;;;;;;4992597;28;20174;-94
2020/12/07 07:40:22;;;;;;;18.97;8.20;;;0.30;99.90;;;;;;4994338;28;20175;-91
2020/12/07 07:42:49;;;;;;;16.33;7.33;;;0.30;99.90;;;;;;4994444;28;20177;-92
2020/12/07 07:45:23;;;;;;;13.63;7.23;;;0.30;99.90;;;;;;4994508;28;20261;-91
2020/12/07 08:06:09;;;;;;;17.97;7.37;;;0.40;99.90;;;;;;4994256;28;20188;-94
2020/12/07 08:17:50;;;;;;;9.50;5.93;;;0.50;99.90;;;;;;5013475;28;20340;-95
2020/12/07 08:20:16;;;;;;;14.33;6.47;;;0.50;99.90;;;;;;5016813;28;20189;-95
2020/12/07 08:22:54;;;;;;;9.70;6.13;;;0.40;99.90;;;;;;5009162;28;20242;-93
2020/12/07 08:25:20;;;;;;;14.80;6.30;;;0.50;99.90;;;;;;5013520;28;20244;-91
2020/12/07 08:27:47;;;;;;;14.50;7.10;;;0.60;99.90;;;;;;5000874;28;20189;-93
2020/12/07 08:30:13;;;;;;;13.57;6.73;;;0.60;99.90;;;;;;5016786;28;20242;-91
2020/12/07 08:32:38;;;;;;;14.27;6.80;;;0.70;99.90;;;;;;5003997;28;20230;-94
2020/12/07 08:35:13;;;;;;;16.00;6.30;;;0.70;99.90;;;;;;5016928;28;20507;-96
2020/12/07 08:37:43;;;;;;;12.87;6.13;;;0.60;99.90;;;;;;5011199;28;20180;-96
2020/12/07 08:40:09;;;;;;;11.07;6.20;;;0.60;99.90;;;;;;5007574;28;20431;-93
2020/12/07 08:42:34;;;;;;;15.87;6.97;;;0.70;99.90;;;;;;5000295;28;20170;-91
2020/12/07 08:45:00;;;;;;;20.57;9.60;;;0.70;99.90;;;;;;4982589;28;20539;-93
2020/12/07 08:47:26;;;;;;;21.37;6.60;;;0.80;99.90;;;;;;4983455;28;20185;-90
2020/12/07 08:49:52;;;;;;;15.57;7.17;;;0.90;99.90;;;;;;4999759;28;20182;-94
2020/12/07 08:52:17;;;;;;;10.30;5.43;;;0.90;99.90;;;;;;4986195;28;20182;-93
2020/12/07 08:54:43;;;;;;;13.40;7.23;;;0.90;99.90;;;;;;4982799;28;20200;-94
2020/12/07 08:57:08;;;;;;;10.33;5.90;;;0.90;99.90;;;;;;5003177;28;20248;-94
2020/12/07 08:59:34;;;;;;;14.63;6.23;;;0.90;99.90;;;;;;4986369;28;20194;-95
2020/12/07 09:02:01;;;;;;;17.57;7.13;;;0.90;99.90;;;;;;4988639;28;20722;-93
2020/12/07 09:04:27;;;;;;;17.63;7.67;;;0.90;99.90;;;;;;4983843;28;20278;-90
2020/12/07 09:06:53;;;;;;;16.17;7.67;;;1.00;99.90;;;;;;5002296;28;20316;-93
2020/12/07 09:09:19;;;;;;;16.40;8.47;;;1.00;99.90;;;;;;4981088;28;20777;-92
2020/12/07 09:11:46;;;;;;;12.30;7.23;;;1.00;99.90;;;;;;4996583;28;20211;-91
2020/12/07 09:14:12;;;;;;;21.17;8.50;;;1.10;99.90;;;;;;4996635;28;20201;-89
2020/12/07 09:16:37;;;;;;;12.57;6.40;;;1.10;99.90;;;;;;4997121;28;20178;-92
2020/12/07 09:19:03;;;;;;;16.87;7.13;;;1.10;99.90;;;;;;4999589;28;20190;-95
2020/12/07 09:21:29;;;;;;;12.47;6.93;;;1.10;99.90;;;;;;4997899;28;20269;-92
2020/12/07 09:23:54;;;;;;;13.30;7.13;;;1.10;99.90;;;;;;4999134;28;20312;-93
2020/12/07 09:26:20;;;;;;;10.53;6.17;;;1.10;99.90;;;;;;5014331;28;20207;-93
2020/12/07 09:28:46;;;;;;;16.33;7.40;;;1.10;99.90;;;;;;5016397;28;20710;-93
2020/12/07 09:31:12;;;;;;;11.97;6.30;;;1.10;99.90;;;;;;5000708;28;20508;-93
2020/12/07 09:33:38;;;;;;;16.03;7.90;;;1.10;99.90;;;;;;4998096;28;20259;-92
2020/12/07 09:36:04;;;;;;;12.53;6.77;;;1.20;99.90;;;;;;5000248;28;20182;-93
2020/12/07 09:38:30;;;;;;;14.93;7.93;;;1.10;99.90;;;;;;4995501;28;20193;-92
2020/12/07 09:40:56;;;;;;;15.90;7.60;;;1.20;99.90;;;;;;4995429;28;20208;-90
2020/12/07 09:43:22;;;;;;;15.70;7.03;;;1.30;99.90;;;;;;5012347;28;20278;-92
2020/12/07 09:45:47;;;;;;;14.77;6.83;;;1.40;99.90;;;;;;5011622;28;20231;-92
2020/12/07 09:48:13;;;;;;;14.30;7.20;;;1.40;99.90;;;;;;4998064;28;20597;-91
2020/12/07 09:50:39;;;;;;;13.93;7.13;;;1.40;99.90;;;;;;5015254;28;20193;-95
2020/12/07 09:53:08;;;;;;;15.40;6.63;;;1.30;99.90;;;;;;4998667;28;20186;-95
2020/12/07 09:55:35;;;;;;;14.60;6.33;;;1.30;99.90;;;;;;4998731;28;20205;-92
2020/12/07 09:58:00;;;;;;;9.43;6.17;;;1.40;99.90;;;;;;4999324;28;20181;-93
2020/12/07 10:00:26;;;;;;;14.67;6.57;;;1.40;99.90;;;;;;4997138;28;20204;-95
2020/12/07 10:02:54;;;;;;;12.73;6.57;;;1.40;99.90;;;;;;4981203;28;20186;-94
2020/12/07 10:05:20;;;;;;;15.80;8.40;;;1.50;99.90;;;;;;4973033;28;20183;-95
2020/12/07 10:07:47;;;;;;;28.10;13.67;;;1.80;99.90;;;;;;5006276;28;20184;-95
2020/12/07 10:10:12;;;;;;;13.33;7.73;;;1.70;99.90;;;;;;4982393;28;20247;-96
2020/12/07 10:12:38;;;;;;;29.90;16.37;;;1.70;99.90;;;;;;5003204;28;20208;-94
2020/12/07 10:15:06;;;;;;;25.63;11.87;;;1.60;99.90;;;;;;4998137;28;20182;-92
2020/12/07 10:17:32;;;;;;;15.33;6.93;;;1.70;99.90;;;;;;5000017;28;20193;-91
2020/12/07 10:19:58;;;;;;;15.43;6.57;;;1.60;99.90;;;;;;5006223;28;20182;-93
2020/12/07 10:22:24;;;;;;;13.87;5.83;;;1.60;99.90;;;;;;4996330;28;20181;-93
2020/12/07 10:24:49;;;;;;;10.57;5.93;;;1.60;99.90;;;;;;4983296;28;20703;-93
2020/12/07 10:27:15;;;;;;;12.53;6.63;;;1.60;99.90;;;;;;4986169;28;20207;-92
2020/12/07 10:29:41;;;;;;;12.47;6.00;;;1.70;99.90;;;;;;4994215;28;20182;-89
2020/12/07 10:32:06;;;;;;;14.67;6.47;;;1.70;99.90;;;;;;4994460;28;20666;-92
2020/12/07 10:34:32;;;;;;;13.07;6.27;;;1.70;99.90;;;;;;4994129;28;20658;-90
2020/12/07 10:37:01;;;;;;;10.53;6.10;;;1.70;99.90;;;;;;4987342;23;20312;-96
2020/12/07 10:39:26;;;;;;;10.00;5.73;;;1.90;99.90;;;;;;4978684;28;20249;-95
2020/12/07 10:41:52;;;;;;;11.93;6.70;;;1.90;99.90;;;;;;4993336;28;20401;-95
2020/12/07 10:44:18;;;;;;;11.23;7.03;;;2.00;99.90;;;;;;5032147;23;20229;-94
2020/12/07 10:46:47;;;;;;;15.70;6.73;;;1.80;99.90;;;;;;4994903;28;20233;-94
2020/12/07 10:49:13;;;;;;;27.27;13.43;;;1.90;99.90;;;;;;4978100;28;20221;-92
2020/12/07 10:51:39;;;;;;;16.43;10.27;;;1.90;99.90;;;;;;4974407;28;20636;-92
2020/12/07 10:54:04;;;;;;;14.10;6.93;;;1.80;99.90;;;;;;4959620;28;20182;-94
2020/12/07 10:56:30;;;;;;;22.00;8.70;;;1.80;99.90;;;;;;4957854;28;20229;-90
2020/12/07 10:58:56;;;;;;;12.10;6.50;;;1.80;99.90;;;;;;4974115;28;20178;-93
2020/12/07 11:01:22;;;;;;;13.77;6.10;;;1.80;99.90;;;;;;4990960;28;20182;-93
2020/12/07 11:03:48;;;;;;;14.93;6.17;;;1.80;99.90;;;;;;4978427;28;20181;-94
2020/12/07 11:06:20;;;;;;;15.20;6.90;;;1.90;99.90;;;;;;4961112;28;20223;-91
2020/12/07 11:08:54;;;;;;;12.33;6.53;;;1.90;99.90;;;;;;4978548;28;20209;-93
2020/12/07 11:11:21;;;;;;;27.73;9.17;;;1.90;99.90;;;;;;4994925;28;20409;-92
2020/12/07 11:13:47;;;;;;;17.73;8.63;;;1.90;99.90;;;;;;5010073;28;20185;-93
2020/12/07 11:16:19;;;;;;;28.10;8.03;;;2.00;99.90;;;;;;4986257;28;20200;-93
2020/12/07 11:18:44;;;;;;;15.30;6.97;;;2.00;99.90;;;;;;4998497;28;20204;-95
2020/12/07 11:21:13;;;;;;;22.03;8.40;;;2.00;99.90;;;;;;5008214;28;20185;-96
2020/12/07 11:23:41;;;;;;;16.23;7.00;;;2.10;99.90;;;;;;4973635;28;20189;-96
2020/12/07 11:26:08;;;;;;;17.23;7.37;;;2.00;99.90;;;;;;5009347;28;20189;-95
2020/12/07 11:28:34;;;;;;;12.00;6.67;;;2.00;99.90;;;;;;5007558;28;20229;-93
2020/12/07 11:30:59;;;;;;;12.07;6.27;;;2.00;99.90;;;;;;4999465;28;20182;-96
2020/12/07 11:33:25;;;;;;;10.97;6.40;;;2.00;99.90;;;;;;4995169;28;20234;-93
2020/12/07 11:35:51;;;;;;;12.40;6.87;;;2.00;99.90;;;;;;4987461;28;20178;-93
2020/12/07 11:38:22;;;;;;;17.77;7.43;;;2.00;99.90;;;;;;4977133;28;20185;-93
2020/12/07 11:45:54;;;;;;;19.67;8.10;;;2.20;99.90;;;;;;4995185;28;20245;-95
2020/12/07 11:48:20;;;;;;;15.13;7.03;;;2.40;99.90;;;;;;4963391;28;20556;-93
2020/12/07 11:50:46;;;;;;;18.80;8.27;;;2.80;99.90;;;;;;4959880;28;20178;-93
2020/12/07 11:53:12;;;;;;;14.13;7.93;;;3.00;99.90;;;;;;4960574;28;20212;-93
2020/12/07 11:55:38;;;;;;;16.63;7.53;;;3.30;99.90;;;;;;4984526;28;20652;-90
2020/12/07 11:58:03;;;;;;;13.33;7.17;;;3.30;99.90;;;;;;4961587;28;20187;-95
2020/12/07 12:00:29;;;;;;;15.37;8.33;;;3.10;99.90;;;;;;4977217;28;20705;-93
2020/12/07 12:02:55;;;;;;;15.97;7.53;;;3.00;99.90;;;;;;4977749;28;20188;-96
2020/12/07 12:05:20;;;;;;;13.37;7.40;;;2.80;99.90;;;;;;4961530;28;20217;-94
2020/12/07 12:07:46;;;;;;;15.73;7.70;;;2.80;99.90;;;;;;4947937;28;20682;-95
2020/12/07 12:10:12;;;;;;;11.27;6.73;;;2.70;99.90;;;;;;4976668;28;20214;-90
2020/12/07 12:12:40;;;;;;;12.50;6.93;;;2.60;99.90;;;;;;4994905;28;20174;-94
2020/12/07 12:15:06;;;;;;;16.07;7.60;;;2.50;99.90;;;;;;4980770;28;20186;-90
2020/12/07 12:17:32;;;;;;;13.47;6.90;;;2.50;99.90;;;;;;4984064;28;20661;-95
2020/12/07 12:19:57;;;;;;;20.10;7.70;;;2.80;99.90;;;;;;4975161;28;20199;-94
2020/12/07 12:22:23;;;;;;;15.97;8.03;;;3.00;99.90;;;;;;4966192;28;20254;-92
2020/12/07 12:24:48;;;;;;;16.37;7.77;;;3.10;99.90;;;;;;4996462;28;20713;-93
2020/12/07 12:27:14;;;;;;;15.07;6.83;;;3.30;99.90;;;;;;4996490;28;20206;-94
2020/12/07 12:29:40;;;;;;;15.03;8.90;;;3.40;99.90;;;;;;4985948;28;20253;-87
2020/12/07 12:32:05;;;;;;;18.70;8.00;;;3.70;99.90;;;;;;4979458;28;20177;-95
2020/12/07 12:34:31;;;;;;;15.97;7.73;;;3.60;99.90;;;;;;5003569;28;20166;-92
2020/12/07 12:36:57;;;;;;;16.77;7.83;;;3.40;99.90;;;;;;4984057;28;20190;-90
2020/12/07 12:39:22;;;;;;;17.20;8.23;;;3.40;99.90;;;;;;4996979;28;20194;-92
2020/12/07 12:41:48;;;;;;;14.10;7.17;;;3.80;99.90;;;;;;4990719;28;20203;-89
2020/12/07 12:44:14;;;;;;;14.47;7.63;;;3.90;99.90;;;;;;5001878;28;20232;-96
2020/12/07 12:46:40;;;;;;;18.83;8.23;;;3.90;99.90;;;;;;4977670;28;20209;-90
2020/12/07 12:49:05;;;;;;;14.90;8.13;;;3.70;99.90;;;;;;4997411;28;20178;-96
2020/12/07 12:51:32;;;;;;;14.60;7.93;;;3.20;99.90;;;;;;4989835;28;20186;-94
2020/12/07 12:53:59;;;;;;;17.50;7.53;;;2.80;99.90;;;;;;5004312;28;20190;-96
2020/12/07 12:58:54;;;;;;;14.13;7.63;;;2.20;99.90;;;;;;5040970;28;20219;-91
2020/12/07 13:01:20;;;;;;;12.53;6.80;;;2.00;99.90;;;;;;5029390;28;20181;-93
2020/12/07 13:03:46;;;;;;;20.30;8.60;;;1.90;99.90;;;;;;5017123;28;20629;-94
2020/12/07 13:06:11;;;;;;;14.60;6.83;;;1.80;99.90;;;;;;5019999;28;20200;-94
2020/12/07 13:08:37;;;;;;;13.30;6.50;;;1.60;99.90;;;;;;5043603;28;20176;-94
2020/12/07 13:11:02;;;;;;;13.87;7.17;;;1.50;99.90;;;;;;5030660;28;20184;-94
2020/12/07 13:13:35;;;;;;;17.60;8.60;;;1.50;99.90;;;;;;5020024;28;20180;-95
2020/12/07 13:16:05;;;;;;;11.07;6.20;;;1.50;99.90;;;;;;5035547;28;20173;-94
2020/12/07 13:18:39;;;;;;;18.10;8.47;;;1.50;99.90;;;;;;5030077;28;20181;-92
2020/12/07 13:24:13;;;;;;;14.67;8.07;;;1.40;99.90;;;;;;5036588;28;20616;-94
2020/12/07 13:28:55;;;;;;;18.70;8.73;;;1.30;99.90;;;;;;5028715;28;20198;-94
2020/12/07 13:31:21;;;;;;;23.80;11.07;;;1.20;99.90;;;;;;5038014;28;20196;-91
2020/12/07 13:33:46;;;;;;;18.17;8.70;;;1.30;99.90;;;;;;5015843;28;20200;-96
2020/12/07 13:36:17;;;;;;;19.23;8.73;;;1.20;99.90;;;;;;5043916;28;20192;-95